sensor_id;sensor_type;location;lat;lon;timestamp;P1;durP1;ratioP1;P2;durP2;ratioP2
6109;SDS011;3085;49.444;11.054;2022-08-26T00:00:26;19.00;;;7.87;;
6109;SDS011;3085;49.444;11.054;2022-08-26T00:02:54;17.63;;;6.13;;
6109;SDS011;3085;49.444;11.054;2022-08-26T00:05:21;11.00;;;6.70;;
6109;SDS011;3085;49.444;11.054;2022-08-26T00:07:48;19.53;;;8.70;;
6109;SDS011;3085;49.444;11.054;2022-08-26T00:10:16;10.03;;;5.90;;
6109;SDS011;3085;49.444;11.054;2022-08-26T00:12:42;12.27;;;6.43;;
6109;SDS011;3085;49.444;11.054;2022-08-26T00:15:12;12.77;;;6.43;;
6109;SDS011;3085;49.444;11.054;2022-08-26T00:17:40;18.17;;;7.43;;
6109;SDS011;3085;49.444;11.054;2022-08-26T00:20:08;12.83;;;6.70;;
6109;SDS011;3085;49.444;11.054;2022-08-26T00:22:38;13.13;;;6.27;;
6109;SDS011;3085;49.444;11.054;2022-08-26T00:25:06;14.60;;;7.00;;
6109;SDS011;3085;49.444;11.054;2022-08-26T00:27:34;18.60;;;7.23;;
6109;SDS011;3085;49.444;11.054;2022-08-26T00:30:02;15.67;;;6.10;;
6109;SDS011;3085;49.444;11.054;2022-08-26T00:32:33;13.13;;;7.13;;
6109;SDS011;3085;49.444;11.054;2022-08-26T00:35:01;12.13;;;7.00;;
6109;SDS011;3085;49.444;11.054;2022-08-26T00:37:29;12.47;;;7.43;;
6109;SDS011;3085;49.444;11.054;2022-08-26T00:39:56;12.40;;;6.73;;
6109;SDS011;3085;49.444;11.054;2022-08-26T00:42:23;14.90;;;7.93;;
6109;SDS011;3085;49.444;11.054;2022-08-26T00:44:51;15.03;;;7.63;;
6109;SDS011;3085;49.444;11.054;2022-08-26T00:47:19;15.03;;;6.03;;
6109;SDS011;3085;49.444;11.054;2022-08-26T00:49:51;17.93;;;6.63;;
6109;SDS011;3085;49.444;11.054;2022-08-26T00:52:19;14.40;;;6.83;;
6109;SDS011;3085;49.444;11.054;2022-08-26T00:54:48;11.60;;;6.80;;
6109;SDS011;3085;49.444;11.054;2022-08-26T00:57:19;17.03;;;6.90;;
6109;SDS011;3085;49.444;11.054;2022-08-26T00:59:50;11.00;;;6.90;;
6109;SDS011;3085;49.444;11.054;2022-08-26T01:02:19;20.40;;;7.80;;
6109;SDS011;3085;49.444;11.054;2022-08-26T01:04:48;15.43;;;7.50;;
6109;SDS011;3085;49.444;11.054;2022-08-26T01:07:18;11.10;;;6.40;;
6109;SDS011;3085;49.444;11.054;2022-08-26T01:09:45;26.57;;;7.30;;
6109;SDS011;3085;49.444;11.054;2022-08-26T01:12:12;16.43;;;6.37;;
6109;SDS011;3085;49.444;11.054;2022-08-26T01:14:39;17.80;;;7.67;;
6109;SDS011;3085;49.444;11.054;2022-08-26T01:17:06;13.90;;;8.03;;
6109;SDS011;3085;49.444;11.054;2022-08-26T01:19:35;16.37;;;7.30;;
6109;SDS011;3085;49.444;11.054;2022-08-26T01:22:09;15.90;;;6.90;;
6109;SDS011;3085;49.444;11.054;2022-08-26T01:24:40;25.40;;;7.50;;
6109;SDS011;3085;49.444;11.054;2022-08-26T01:27:09;10.50;;;6.67;;
6109;SDS011;3085;49.444;11.054;2022-08-26T01:29:41;9.50;;;6.50;;
6109;SDS011;3085;49.444;11.054;2022-08-26T01:32:10;10.63;;;6.73;;
6109;SDS011;3085;49.444;11.054;2022-08-26T01:34:41;14.47;;;7.67;;
6109;SDS011;3085;49.444;11.054;2022-08-26T01:37:09;15.13;;;6.90;;
6109;SDS011;3085;49.444;11.054;2022-08-26T01:39:38;10.77;;;6.67;;
6109;SDS011;3085;49.444;11.054;2022-08-26T01:42:09;23.87;;;6.07;;
6109;SDS011;3085;49.444;11.054;2022-08-26T01:44:40;9.97;;;5.80;;
6109;SDS011;3085;49.444;11.054;2022-08-26T01:47:10;16.73;;;7.10;;
6109;SDS011;3085;49.444;11.054;2022-08-26T01:49:39;18.00;;;7.20;;
6109;SDS011;3085;49.444;11.054;2022-08-26T01:52:08;10.83;;;6.30;;
6109;SDS011;3085;49.444;11.054;2022-08-26T01:54:37;12.70;;;6.40;;
6109;SDS011;3085;49.444;11.054;2022-08-26T01:57:05;14.63;;;6.33;;
6109;SDS011;3085;49.444;11.054;2022-08-26T01:59:32;11.00;;;6.40;;
6109;SDS011;3085;49.444;11.054;2022-08-26T02:02:00;10.80;;;6.30;;
6109;SDS011;3085;49.444;11.054;2022-08-26T02:04:28;8.23;;;5.70;;
6109;SDS011;3085;49.444;11.054;2022-08-26T02:06:58;10.87;;;5.50;;
6109;SDS011;3085;49.444;11.054;2022-08-26T02:09:28;20.20;;;7.50;;
6109;SDS011;3085;49.444;11.054;2022-08-26T02:11:55;12.33;;;7.30;;
6109;SDS011;3085;49.444;11.054;2022-08-26T02:14:27;9.23;;;5.10;;
6109;SDS011;3085;49.444;11.054;2022-08-26T02:16:55;10.57;;;5.40;;
6109;SDS011;3085;49.444;11.054;2022-08-26T02:19:24;12.73;;;6.67;;
6109;SDS011;3085;49.444;11.054;2022-08-26T02:21:54;13.23;;;6.63;;
6109;SDS011;3085;49.444;11.054;2022-08-26T02:24:24;14.30;;;6.20;;
6109;SDS011;3085;49.444;11.054;2022-08-26T02:26:54;14.80;;;6.33;;
6109;SDS011;3085;49.444;11.054;2022-08-26T02:29:23;11.73;;;6.17;;
6109;SDS011;3085;49.444;11.054;2022-08-26T02:31:55;9.27;;;5.70;;
6109;SDS011;3085;49.444;11.054;2022-08-26T02:34:24;10.00;;;6.47;;
6109;SDS011;3085;49.444;11.054;2022-08-26T02:36:54;14.07;;;7.40;;
6109;SDS011;3085;49.444;11.054;2022-08-26T02:39:22;11.20;;;6.90;;
6109;SDS011;3085;49.444;11.054;2022-08-26T02:41:48;12.83;;;6.50;;
6109;SDS011;3085;49.444;11.054;2022-08-26T02:44:15;18.33;;;7.20;;
6109;SDS011;3085;49.444;11.054;2022-08-26T02:46:42;20.50;;;7.17;;
6109;SDS011;3085;49.444;11.054;2022-08-26T02:49:11;16.43;;;7.43;;
6109;SDS011;3085;49.444;11.054;2022-08-26T02:51:38;20.83;;;8.10;;
6109;SDS011;3085;49.444;11.054;2022-08-26T02:54:05;18.07;;;7.30;;
6109;SDS011;3085;49.444;11.054;2022-08-26T02:56:32;10.53;;;6.90;;
6109;SDS011;3085;49.444;11.054;2022-08-26T02:58:59;14.83;;;7.73;;
6109;SDS011;3085;49.444;11.054;2022-08-26T03:01:28;14.47;;;7.40;;
6109;SDS011;3085;49.444;11.054;2022-08-26T03:03:57;15.70;;;7.70;;
6109;SDS011;3085;49.444;11.054;2022-08-26T03:06:26;12.00;;;7.30;;
6109;SDS011;3085;49.444;11.054;2022-08-26T03:08:53;23.70;;;7.63;;
6109;SDS011;3085;49.444;11.054;2022-08-26T03:11:20;23.63;;;8.43;;
6109;SDS011;3085;49.444;11.054;2022-08-26T03:13:47;14.20;;;6.57;;
6109;SDS011;3085;49.444;11.054;2022-08-26T03:16:15;37.83;;;8.10;;
6109;SDS011;3085;49.444;11.054;2022-08-26T03:18:43;10.20;;;6.70;;
6109;SDS011;3085;49.444;11.054;2022-08-26T03:21:10;12.83;;;6.97;;
6109;SDS011;3085;49.444;11.054;2022-08-26T03:23:40;16.43;;;6.97;;
6109;SDS011;3085;49.444;11.054;2022-08-26T03:26:08;16.17;;;6.77;;
6109;SDS011;3085;49.444;11.054;2022-08-26T03:28:36;12.03;;;5.77;;
6109;SDS011;3085;49.444;11.054;2022-08-26T03:31:23;15.80;;;6.57;;
6109;SDS011;3085;49.444;11.054;2022-08-26T03:33:50;18.27;;;7.80;;
6109;SDS011;3085;49.444;11.054;2022-08-26T03:36:16;16.40;;;7.90;;
6109;SDS011;3085;49.444;11.054;2022-08-26T03:38:45;17.00;;;8.27;;
6109;SDS011;3085;49.444;11.054;2022-08-26T03:41:11;17.10;;;7.40;;
6109;SDS011;3085;49.444;11.054;2022-08-26T03:43:38;13.70;;;6.90;;
6109;SDS011;3085;49.444;11.054;2022-08-26T03:46:06;17.57;;;7.73;;
6109;SDS011;3085;49.444;11.054;2022-08-26T03:48:34;31.00;;;8.63;;
6109;SDS011;3085;49.444;11.054;2022-08-26T03:51:01;14.37;;;7.17;;
6109;SDS011;3085;49.444;11.054;2022-08-26T03:53:28;17.47;;;7.90;;
6109;SDS011;3085;49.444;11.054;2022-08-26T03:55:56;15.20;;;7.07;;
6109;SDS011;3085;49.444;11.054;2022-08-26T03:58:23;14.13;;;7.10;;
6109;SDS011;3085;49.444;11.054;2022-08-26T04:00:50;22.40;;;8.30;;
6109;SDS011;3085;49.444;11.054;2022-08-26T04:03:17;17.20;;;6.57;;
6109;SDS011;3085;49.444;11.054;2022-08-26T04:06:04;14.20;;;7.20;;
6109;SDS011;3085;49.444;11.054;2022-08-26T04:08:32;12.73;;;7.10;;
6109;SDS011;3085;49.444;11.054;2022-08-26T04:11:00;14.00;;;7.53;;
6109;SDS011;3085;49.444;11.054;2022-08-26T04:13:27;19.10;;;7.50;;
6109;SDS011;3085;49.444;11.054;2022-08-26T04:15:54;10.70;;;6.93;;
6109;SDS011;3085;49.444;11.054;2022-08-26T04:18:21;14.70;;;7.20;;
6109;SDS011;3085;49.444;11.054;2022-08-26T04:20:52;19.33;;;8.30;;
6109;SDS011;3085;49.444;11.054;2022-08-26T04:23:19;23.17;;;8.43;;
6109;SDS011;3085;49.444;11.054;2022-08-26T04:25:46;13.73;;;7.47;;
6109;SDS011;3085;49.444;11.054;2022-08-26T04:28:14;16.03;;;8.80;;
6109;SDS011;3085;49.444;11.054;2022-08-26T04:30:41;14.50;;;8.00;;
6109;SDS011;3085;49.444;11.054;2022-08-26T04:33:08;15.00;;;8.97;;
6109;SDS011;3085;49.444;11.054;2022-08-26T04:35:37;17.47;;;8.37;;
6109;SDS011;3085;49.444;11.054;2022-08-26T04:38:04;12.13;;;5.87;;
6109;SDS011;3085;49.444;11.054;2022-08-26T04:40:31;26.53;;;8.10;;
6109;SDS011;3085;49.444;11.054;2022-08-26T04:42:58;16.73;;;8.03;;
6109;SDS011;3085;49.444;11.054;2022-08-26T04:45:26;17.33;;;8.93;;
6109;SDS011;3085;49.444;11.054;2022-08-26T04:47:54;18.97;;;7.90;;
6109;SDS011;3085;49.444;11.054;2022-08-26T04:50:21;21.53;;;7.50;;
6109;SDS011;3085;49.444;11.054;2022-08-26T04:52:49;22.43;;;8.17;;
6109;SDS011;3085;49.444;11.054;2022-08-26T04:55:16;15.03;;;8.23;;
6109;SDS011;3085;49.444;11.054;2022-08-26T04:57:43;13.37;;;7.50;;
6109;SDS011;3085;49.444;11.054;2022-08-26T05:00:10;22.10;;;8.30;;
6109;SDS011;3085;49.444;11.054;2022-08-26T05:02:39;16.50;;;8.30;;
6109;SDS011;3085;49.444;11.054;2022-08-26T05:05:06;12.17;;;7.33;;
6109;SDS011;3085;49.444;11.054;2022-08-26T05:07:33;13.33;;;7.40;;
6109;SDS011;3085;49.444;11.054;2022-08-26T05:10:01;17.37;;;8.23;;
6109;SDS011;3085;49.444;11.054;2022-08-26T05:12:29;14.30;;;8.33;;
6109;SDS011;3085;49.444;11.054;2022-08-26T05:14:56;20.70;;;7.93;;
6109;SDS011;3085;49.444;11.054;2022-08-26T05:17:23;12.70;;;8.30;;
6109;SDS011;3085;49.444;11.054;2022-08-26T05:19:52;15.30;;;7.90;;
6109;SDS011;3085;49.444;11.054;2022-08-26T05:22:19;13.27;;;8.03;;
6109;SDS011;3085;49.444;11.054;2022-08-26T05:24:46;24.60;;;8.50;;
6109;SDS011;3085;49.444;11.054;2022-08-26T05:27:13;17.83;;;8.43;;
6109;SDS011;3085;49.444;11.054;2022-08-26T05:29:40;19.93;;;7.77;;
6109;SDS011;3085;49.444;11.054;2022-08-26T05:32:07;18.67;;;8.87;;
6109;SDS011;3085;49.444;11.054;2022-08-26T05:34:34;17.37;;;8.10;;
6109;SDS011;3085;49.444;11.054;2022-08-26T05:37:03;14.67;;;7.93;;
6109;SDS011;3085;49.444;11.054;2022-08-26T05:39:31;15.30;;;7.83;;
6109;SDS011;3085;49.444;11.054;2022-08-26T05:41:57;18.87;;;8.20;;
6109;SDS011;3085;49.444;11.054;2022-08-26T05:44:25;32.37;;;10.33;;
6109;SDS011;3085;49.444;11.054;2022-08-26T05:46:55;15.03;;;8.60;;
6109;SDS011;3085;49.444;11.054;2022-08-26T05:49:21;17.07;;;9.00;;
6109;SDS011;3085;49.444;11.054;2022-08-26T05:51:48;19.53;;;8.67;;
6109;SDS011;3085;49.444;11.054;2022-08-26T05:54:16;19.80;;;9.90;;
6109;SDS011;3085;49.444;11.054;2022-08-26T05:56:43;17.60;;;8.60;;
6109;SDS011;3085;49.444;11.054;2022-08-26T05:59:11;28.40;;;10.40;;
6109;SDS011;3085;49.444;11.054;2022-08-26T06:01:39;19.80;;;10.17;;
6109;SDS011;3085;49.444;11.054;2022-08-26T06:04:06;15.83;;;8.87;;
6109;SDS011;3085;49.444;11.054;2022-08-26T06:06:34;18.37;;;9.30;;
6109;SDS011;3085;49.444;11.054;2022-08-26T06:09:05;23.03;;;8.73;;
6109;SDS011;3085;49.444;11.054;2022-08-26T06:11:35;16.90;;;9.17;;
6109;SDS011;3085;49.444;11.054;2022-08-26T06:14:03;19.07;;;9.50;;
6109;SDS011;3085;49.444;11.054;2022-08-26T06:16:31;25.20;;;10.83;;
6109;SDS011;3085;49.444;11.054;2022-08-26T06:19:00;26.97;;;12.13;;
6109;SDS011;3085;49.444;11.054;2022-08-26T06:21:29;20.13;;;10.07;;
6109;SDS011;3085;49.444;11.054;2022-08-26T06:23:58;17.87;;;8.10;;
6109;SDS011;3085;49.444;11.054;2022-08-26T06:26:47;17.97;;;9.33;;
6109;SDS011;3085;49.444;11.054;2022-08-26T06:29:16;21.37;;;10.50;;
6109;SDS011;3085;49.444;11.054;2022-08-26T06:31:44;16.60;;;9.20;;
6109;SDS011;3085;49.444;11.054;2022-08-26T06:34:11;14.40;;;8.40;;
6109;SDS011;3085;49.444;11.054;2022-08-26T06:36:39;13.90;;;7.60;;
6109;SDS011;3085;49.444;11.054;2022-08-26T06:39:08;17.50;;;9.03;;
6109;SDS011;3085;49.444;11.054;2022-08-26T06:41:36;15.67;;;7.20;;
6109;SDS011;3085;49.444;11.054;2022-08-26T06:44:06;29.23;;;7.30;;
6109;SDS011;3085;49.444;11.054;2022-08-26T06:46:33;18.63;;;8.70;;
6109;SDS011;3085;49.444;11.054;2022-08-26T06:49:00;20.77;;;7.93;;
6109;SDS011;3085;49.444;11.054;2022-08-26T06:51:28;16.27;;;7.97;;
6109;SDS011;3085;49.444;11.054;2022-08-26T06:53:57;23.50;;;8.70;;
6109;SDS011;3085;49.444;11.054;2022-08-26T06:56:26;16.63;;;7.30;;
6109;SDS011;3085;49.444;11.054;2022-08-26T06:58:57;17.30;;;7.83;;
6109;SDS011;3085;49.444;11.054;2022-08-26T07:01:26;17.27;;;7.93;;
6109;SDS011;3085;49.444;11.054;2022-08-26T07:03:56;14.77;;;8.20;;
6109;SDS011;3085;49.444;11.054;2022-08-26T07:06:26;17.80;;;7.83;;
6109;SDS011;3085;49.444;11.054;2022-08-26T07:08:58;23.03;;;8.27;;
6109;SDS011;3085;49.444;11.054;2022-08-26T07:11:27;19.53;;;7.80;;
6109;SDS011;3085;49.444;11.054;2022-08-26T07:13:54;15.73;;;7.63;;
6109;SDS011;3085;49.444;11.054;2022-08-26T07:16:23;16.13;;;8.27;;
6109;SDS011;3085;49.444;11.054;2022-08-26T07:18:52;14.40;;;7.70;;
6109;SDS011;3085;49.444;11.054;2022-08-26T07:21:20;15.10;;;7.20;;
6109;SDS011;3085;49.444;11.054;2022-08-26T07:23:48;19.00;;;8.13;;
6109;SDS011;3085;49.444;11.054;2022-08-26T07:26:16;17.10;;;8.33;;
6109;SDS011;3085;49.444;11.054;2022-08-26T07:28:45;15.20;;;7.10;;
6109;SDS011;3085;49.444;11.054;2022-08-26T07:31:15;19.00;;;7.80;;
6109;SDS011;3085;49.444;11.054;2022-08-26T07:33:43;12.67;;;7.47;;
6109;SDS011;3085;49.444;11.054;2022-08-26T07:36:12;18.53;;;7.03;;
6109;SDS011;3085;49.444;11.054;2022-08-26T07:38:40;10.57;;;7.47;;
6109;SDS011;3085;49.444;11.054;2022-08-26T07:41:09;17.50;;;7.43;;
6109;SDS011;3085;49.444;11.054;2022-08-26T07:43:37;13.60;;;7.27;;
6109;SDS011;3085;49.444;11.054;2022-08-26T07:46:05;13.47;;;6.07;;
6109;SDS011;3085;49.444;11.054;2022-08-26T07:48:32;13.40;;;6.10;;
6109;SDS011;3085;49.444;11.054;2022-08-26T07:51:00;19.47;;;7.00;;
6109;SDS011;3085;49.444;11.054;2022-08-26T07:53:29;18.77;;;8.30;;
6109;SDS011;3085;49.444;11.054;2022-08-26T07:55:56;15.07;;;6.80;;
6109;SDS011;3085;49.444;11.054;2022-08-26T07:58:24;13.90;;;6.87;;
6109;SDS011;3085;49.444;11.054;2022-08-26T08:00:51;13.77;;;5.87;;
6109;SDS011;3085;49.444;11.054;2022-08-26T08:03:18;21.60;;;6.30;;
6109;SDS011;3085;49.444;11.054;2022-08-26T08:05:45;14.40;;;6.30;;
6109;SDS011;3085;49.444;11.054;2022-08-26T08:08:13;16.23;;;6.73;;
6109;SDS011;3085;49.444;11.054;2022-08-26T08:10:42;17.53;;;7.43;;
6109;SDS011;3085;49.444;11.054;2022-08-26T08:13:09;17.53;;;7.10;;
6109;SDS011;3085;49.444;11.054;2022-08-26T08:15:37;13.40;;;6.43;;
6109;SDS011;3085;49.444;11.054;2022-08-26T08:18:04;13.77;;;7.50;;
6109;SDS011;3085;49.444;11.054;2022-08-26T08:20:32;21.40;;;7.13;;
6109;SDS011;3085;49.444;11.054;2022-08-26T08:23:00;15.13;;;6.03;;
6109;SDS011;3085;49.444;11.054;2022-08-26T08:25:28;14.10;;;6.07;;
6109;SDS011;3085;49.444;11.054;2022-08-26T08:27:57;15.60;;;5.87;;
6109;SDS011;3085;49.444;11.054;2022-08-26T08:30:25;19.03;;;6.00;;
6109;SDS011;3085;49.444;11.054;2022-08-26T08:32:52;10.70;;;5.67;;
6109;SDS011;3085;49.444;11.054;2022-08-26T08:35:21;16.80;;;5.77;;
6109;SDS011;3085;49.444;11.054;2022-08-26T08:37:50;13.60;;;5.90;;
6109;SDS011;3085;49.444;11.054;2022-08-26T08:40:20;14.90;;;6.50;;
6109;SDS011;3085;49.444;11.054;2022-08-26T08:42:51;12.20;;;5.33;;
6109;SDS011;3085;49.444;11.054;2022-08-26T08:45:26;13.57;;;5.70;;
6109;SDS011;3085;49.444;11.054;2022-08-26T08:47:58;9.00;;;5.50;;
6109;SDS011;3085;49.444;11.054;2022-08-26T08:50:28;12.67;;;5.17;;
6109;SDS011;3085;49.444;11.054;2022-08-26T08:53:02;12.90;;;5.73;;
6109;SDS011;3085;49.444;11.054;2022-08-26T08:55:39;14.97;;;6.07;;
6109;SDS011;3085;49.444;11.054;2022-08-26T08:58:15;14.10;;;5.73;;
6109;SDS011;3085;49.444;11.054;2022-08-26T09:00:46;16.47;;;5.23;;
6109;SDS011;3085;49.444;11.054;2022-08-26T09:03:20;17.33;;;6.43;;
6109;SDS011;3085;49.444;11.054;2022-08-26T09:05:56;16.40;;;5.40;;
6109;SDS011;3085;49.444;11.054;2022-08-26T09:08:27;13.83;;;5.87;;
6109;SDS011;3085;49.444;11.054;2022-08-26T09:11:00;12.60;;;5.40;;
6109;SDS011;3085;49.444;11.054;2022-08-26T09:13:30;22.17;;;5.20;;
6109;SDS011;3085;49.444;11.054;2022-08-26T09:16:00;15.33;;;6.77;;
6109;SDS011;3085;49.444;11.054;2022-08-26T09:18:51;15.30;;;5.33;;
6109;SDS011;3085;49.444;11.054;2022-08-26T09:21:43;11.80;;;5.00;;
6109;SDS011;3085;49.444;11.054;2022-08-26T09:24:10;15.83;;;5.43;;
6109;SDS011;3085;49.444;11.054;2022-08-26T09:26:41;15.80;;;5.63;;
6109;SDS011;3085;49.444;11.054;2022-08-26T09:29:18;16.13;;;5.90;;
6109;SDS011;3085;49.444;11.054;2022-08-26T09:31:47;10.77;;;6.00;;
6109;SDS011;3085;49.444;11.054;2022-08-26T09:34:15;13.87;;;6.70;;
6109;SDS011;3085;49.444;11.054;2022-08-26T09:36:44;16.27;;;6.37;;
6109;SDS011;3085;49.444;11.054;2022-08-26T09:42:02;10.40;;;5.30;;
6109;SDS011;3085;49.444;11.054;2022-08-26T09:44:33;17.30;;;6.30;;
6109;SDS011;3085;49.444;11.054;2022-08-26T09:47:01;12.03;;;5.53;;
6109;SDS011;3085;49.444;11.054;2022-08-26T09:49:33;11.03;;;5.50;;
6109;SDS011;3085;49.444;11.054;2022-08-26T09:54:56;14.03;;;6.57;;
6109;SDS011;3085;49.444;11.054;2022-08-26T09:57:27;14.40;;;6.37;;
6109;SDS011;3085;49.444;11.054;2022-08-26T09:59:57;14.23;;;7.37;;
6109;SDS011;3085;49.444;11.054;2022-08-26T10:02:35;10.30;;;5.80;;
6109;SDS011;3085;49.444;11.054;2022-08-26T10:05:07;13.93;;;5.53;;
6109;SDS011;3085;49.444;11.054;2022-08-26T10:07:42;12.80;;;5.27;;
6109;SDS011;3085;49.444;11.054;2022-08-26T10:10:14;14.53;;;6.17;;
6109;SDS011;3085;49.444;11.054;2022-08-26T10:12:51;13.63;;;5.87;;
6109;SDS011;3085;49.444;11.054;2022-08-26T10:15:25;11.30;;;4.93;;
6109;SDS011;3085;49.444;11.054;2022-08-26T10:17:58;7.00;;;5.20;;
6109;SDS011;3085;49.444;11.054;2022-08-26T10:20:30;12.43;;;5.23;;
6109;SDS011;3085;49.444;11.054;2022-08-26T10:23:01;15.73;;;5.50;;
6109;SDS011;3085;49.444;11.054;2022-08-26T10:25:33;10.60;;;6.17;;
6109;SDS011;3085;49.444;11.054;2022-08-26T10:28:05;18.10;;;6.00;;
6109;SDS011;3085;49.444;11.054;2022-08-26T10:30:39;12.63;;;5.07;;
6109;SDS011;3085;49.444;11.054;2022-08-26T10:33:12;11.60;;;5.50;;
6109;SDS011;3085;49.444;11.054;2022-08-26T10:35:40;9.10;;;4.60;;
6109;SDS011;3085;49.444;11.054;2022-08-26T10:38:14;11.80;;;5.50;;
6109;SDS011;3085;49.444;11.054;2022-08-26T10:40:46;12.50;;;5.40;;
6109;SDS011;3085;49.444;11.054;2022-08-26T10:43:18;21.47;;;6.27;;
6109;SDS011;3085;49.444;11.054;2022-08-26T10:45:50;8.97;;;5.03;;
6109;SDS011;3085;49.444;11.054;2022-08-26T10:48:20;13.93;;;5.40;;
6109;SDS011;3085;49.444;11.054;2022-08-26T10:50:50;12.43;;;6.00;;
6109;SDS011;3085;49.444;11.054;2022-08-26T10:53:19;12.17;;;5.73;;
6109;SDS011;3085;49.444;11.054;2022-08-26T10:55:54;11.13;;;5.07;;
6109;SDS011;3085;49.444;11.054;2022-08-26T10:58:39;21.87;;;5.87;;
6109;SDS011;3085;49.444;11.054;2022-08-26T11:01:19;13.43;;;4.63;;
6109;SDS011;3085;49.444;11.054;2022-08-26T11:04:11;16.07;;;4.77;;
6109;SDS011;3085;49.444;11.054;2022-08-26T11:06:48;8.33;;;5.03;;
6109;SDS011;3085;49.444;11.054;2022-08-26T11:12:08;22.83;;;6.90;;
6109;SDS011;3085;49.444;11.054;2022-08-26T11:14:55;8.10;;;5.00;;
6109;SDS011;3085;49.444;11.054;2022-08-26T11:20:33;13.40;;;5.67;;
6109;SDS011;3085;49.444;11.054;2022-08-26T11:26:12;14.37;;;5.10;;
6109;SDS011;3085;49.444;11.054;2022-08-26T11:28:40;12.87;;;5.60;;
6109;SDS011;3085;49.444;11.054;2022-08-26T11:31:09;12.70;;;5.27;;
6109;SDS011;3085;49.444;11.054;2022-08-26T11:36:34;9.87;;;5.10;;
6109;SDS011;3085;49.444;11.054;2022-08-26T11:39:03;16.13;;;5.40;;
6109;SDS011;3085;49.444;11.054;2022-08-26T11:41:41;14.53;;;5.20;;
6109;SDS011;3085;49.444;11.054;2022-08-26T11:44:10;12.67;;;5.07;;
6109;SDS011;3085;49.444;11.054;2022-08-26T11:46:50;5.70;;;3.97;;
6109;SDS011;3085;49.444;11.054;2022-08-26T11:49:19;18.77;;;6.40;;
6109;SDS011;3085;49.444;11.054;2022-08-26T11:51:46;11.90;;;4.63;;
6109;SDS011;3085;49.444;11.054;2022-08-26T11:54:14;10.40;;;4.47;;
6109;SDS011;3085;49.444;11.054;2022-08-26T11:56:43;15.10;;;3.63;;
6109;SDS011;3085;49.444;11.054;2022-08-26T11:59:12;8.63;;;5.20;;
6109;SDS011;3085;49.444;11.054;2022-08-26T12:01:44;8.07;;;4.00;;
6109;SDS011;3085;49.444;11.054;2022-08-26T12:04:24;9.70;;;4.70;;
6109;SDS011;3085;49.444;11.054;2022-08-26T12:06:55;13.80;;;4.80;;
6109;SDS011;3085;49.444;11.054;2022-08-26T12:09:25;6.53;;;3.77;;
6109;SDS011;3085;49.444;11.054;2022-08-26T12:12:08;20.90;;;5.17;;
6109;SDS011;3085;49.444;11.054;2022-08-26T12:14:36;12.93;;;4.20;;
6109;SDS011;3085;49.444;11.054;2022-08-26T12:17:07;7.87;;;4.80;;
6109;SDS011;3085;49.444;11.054;2022-08-26T12:19:37;17.60;;;4.40;;
6109;SDS011;3085;49.444;11.054;2022-08-26T12:22:06;9.13;;;4.50;;
6109;SDS011;3085;49.444;11.054;2022-08-26T12:24:40;6.10;;;4.47;;
6109;SDS011;3085;49.444;11.054;2022-08-26T12:27:17;7.47;;;5.20;;
6109;SDS011;3085;49.444;11.054;2022-08-26T12:29:59;12.67;;;4.63;;
6109;SDS011;3085;49.444;11.054;2022-08-26T12:32:27;10.83;;;4.47;;
6109;SDS011;3085;49.444;11.054;2022-08-26T12:34:57;8.73;;;4.27;;
6109;SDS011;3085;49.444;11.054;2022-08-26T12:37:26;9.77;;;4.37;;
6109;SDS011;3085;49.444;11.054;2022-08-26T12:42:52;14.50;;;5.67;;
6109;SDS011;3085;49.444;11.054;2022-08-26T12:45:25;11.73;;;4.23;;
6109;SDS011;3085;49.444;11.054;2022-08-26T12:47:53;13.93;;;4.40;;
6109;SDS011;3085;49.444;11.054;2022-08-26T12:50:25;11.17;;;4.97;;
6109;SDS011;3085;49.444;11.054;2022-08-26T12:52:55;13.90;;;4.47;;
6109;SDS011;3085;49.444;11.054;2022-08-26T12:55:32;11.87;;;4.87;;
6109;SDS011;3085;49.444;11.054;2022-08-26T13:00:54;11.93;;;4.17;;
6109;SDS011;3085;49.444;11.054;2022-08-26T13:03:39;8.40;;;4.50;;
6109;SDS011;3085;49.444;11.054;2022-08-26T13:06:12;9.17;;;4.57;;
6109;SDS011;3085;49.444;11.054;2022-08-26T13:08:52;7.90;;;4.00;;
6109;SDS011;3085;49.444;11.054;2022-08-26T13:11:21;6.23;;;4.20;;
6109;SDS011;3085;49.444;11.054;2022-08-26T13:13:50;7.23;;;4.70;;
6109;SDS011;3085;49.444;11.054;2022-08-26T13:16:20;17.10;;;5.10;;
6109;SDS011;3085;49.444;11.054;2022-08-26T13:18:48;11.03;;;4.40;;
6109;SDS011;3085;49.444;11.054;2022-08-26T13:21:19;11.60;;;4.83;;
6109;SDS011;3085;49.444;11.054;2022-08-26T13:23:47;12.93;;;4.80;;
6109;SDS011;3085;49.444;11.054;2022-08-26T13:26:15;14.40;;;4.73;;
6109;SDS011;3085;49.444;11.054;2022-08-26T13:28:43;14.47;;;4.00;;
6109;SDS011;3085;49.444;11.054;2022-08-26T13:31:10;9.37;;;4.20;;
6109;SDS011;3085;49.444;11.054;2022-08-26T13:33:38;9.87;;;4.20;;
6109;SDS011;3085;49.444;11.054;2022-08-26T13:36:07;6.20;;;3.77;;
6109;SDS011;3085;49.444;11.054;2022-08-26T13:38:35;10.67;;;4.40;;
6109;SDS011;3085;49.444;11.054;2022-08-26T13:41:02;5.17;;;4.23;;
6109;SDS011;3085;49.444;11.054;2022-08-26T13:43:30;11.10;;;4.57;;
6109;SDS011;3085;49.444;11.054;2022-08-26T13:45:57;6.80;;;3.63;;
6109;SDS011;3085;49.444;11.054;2022-08-26T13:48:25;6.83;;;3.03;;
6109;SDS011;3085;49.444;11.054;2022-08-26T13:50:52;6.93;;;3.87;;
6109;SDS011;3085;49.444;11.054;2022-08-26T13:53:19;11.30;;;4.00;;
6109;SDS011;3085;49.444;11.054;2022-08-26T13:55:48;12.43;;;3.20;;
6109;SDS011;3085;49.444;11.054;2022-08-26T13:58:15;3.70;;;2.70;;
6109;SDS011;3085;49.444;11.054;2022-08-26T14:00:42;12.37;;;3.20;;
6109;SDS011;3085;49.444;11.054;2022-08-26T14:03:09;3.60;;;2.40;;
6109;SDS011;3085;49.444;11.054;2022-08-26T14:05:36;5.50;;;3.37;;
6109;SDS011;3085;49.444;11.054;2022-08-26T14:08:03;9.37;;;3.60;;
6109;SDS011;3085;49.444;11.054;2022-08-26T14:10:30;7.40;;;3.87;;
6109;SDS011;3085;49.444;11.054;2022-08-26T14:12:58;14.80;;;3.53;;
6109;SDS011;3085;49.444;11.054;2022-08-26T14:15:25;9.10;;;3.00;;
6109;SDS011;3085;49.444;11.054;2022-08-26T14:17:53;12.40;;;4.03;;
6109;SDS011;3085;49.444;11.054;2022-08-26T14:20:22;10.70;;;3.80;;
6109;SDS011;3085;49.444;11.054;2022-08-26T14:22:51;10.70;;;4.43;;
6109;SDS011;3085;49.444;11.054;2022-08-26T14:25:19;8.43;;;3.90;;
6109;SDS011;3085;49.444;11.054;2022-08-26T14:27:47;12.43;;;2.50;;
6109;SDS011;3085;49.444;11.054;2022-08-26T14:30:15;11.03;;;3.47;;
6109;SDS011;3085;49.444;11.054;2022-08-26T14:32:43;6.63;;;3.90;;
6109;SDS011;3085;49.444;11.054;2022-08-26T14:35:12;8.70;;;2.93;;
6109;SDS011;3085;49.444;11.054;2022-08-26T14:37:42;5.00;;;2.50;;
6109;SDS011;3085;49.444;11.054;2022-08-26T14:40:09;8.40;;;3.30;;
6109;SDS011;3085;49.444;11.054;2022-08-26T14:42:37;9.07;;;2.83;;
6109;SDS011;3085;49.444;11.054;2022-08-26T14:45:06;10.87;;;2.60;;
6109;SDS011;3085;49.444;11.054;2022-08-26T14:47:38;9.63;;;2.90;;
6109;SDS011;3085;49.444;11.054;2022-08-26T14:50:05;4.90;;;2.93;;
6109;SDS011;3085;49.444;11.054;2022-08-26T14:52:33;15.23;;;3.80;;
6109;SDS011;3085;49.444;11.054;2022-08-26T14:55:20;7.57;;;3.70;;
6109;SDS011;3085;49.444;11.054;2022-08-26T14:57:46;6.87;;;2.90;;
6109;SDS011;3085;49.444;11.054;2022-08-26T15:00:13;12.10;;;4.23;;
6109;SDS011;3085;49.444;11.054;2022-08-26T15:02:42;12.23;;;4.77;;
6109;SDS011;3085;49.444;11.054;2022-08-26T15:05:09;16.53;;;6.87;;
6109;SDS011;3085;49.444;11.054;2022-08-26T15:07:37;10.87;;;4.10;;
6109;SDS011;3085;49.444;11.054;2022-08-26T15:10:08;11.23;;;5.07;;
6109;SDS011;3085;49.444;11.054;2022-08-26T15:12:37;7.87;;;3.50;;
6109;SDS011;3085;49.444;11.054;2022-08-26T15:15:05;12.90;;;3.70;;
6109;SDS011;3085;49.444;11.054;2022-08-26T15:17:34;4.33;;;2.73;;
6109;SDS011;3085;49.444;11.054;2022-08-26T15:20:03;8.23;;;3.40;;
6109;SDS011;3085;49.444;11.054;2022-08-26T15:22:32;11.23;;;4.83;;
6109;SDS011;3085;49.444;11.054;2022-08-26T15:24:59;6.03;;;3.70;;
6109;SDS011;3085;49.444;11.054;2022-08-26T15:27:26;8.80;;;3.93;;